createdAt,value
2018-09-16T00:01:06.413Z,11.23
2018-09-16T00:03:34.477Z,11.43
2018-09-16T00:06:02.551Z,11.90
2018-09-16T00:08:30.709Z,12.03
2018-09-16T00:10:58.815Z,11.50
2018-09-16T00:13:26.957Z,12.07
2018-09-16T00:15:55.063Z,13.13
2018-09-16T00:18:23.120Z,12.07
2018-09-16T00:20:51.176Z,11.80
2018-09-16T00:23:19.274Z,11.30
2018-09-16T00:25:47.349Z,11.37
2018-09-16T00:28:15.441Z,10.80
2018-09-16T00:30:43.601Z,11.90
2018-09-16T00:33:11.817Z,11.87
2018-09-16T00:35:39.894Z,11.80
2018-09-16T00:38:07.984Z,12.17
2018-09-16T00:40:36.084Z,12.70
2018-09-16T00:43:04.275Z,12.30
2018-09-16T00:45:32.452Z,13.53
2018-09-16T00:48:00.517Z,13.20
2018-09-16T00:50:28.701Z,12.50
2018-09-16T00:52:56.756Z,14.70
2018-09-16T00:55:24.901Z,13.83
2018-09-16T00:57:52.980Z,12.90
2018-09-16T01:00:21.077Z,14.07
2018-09-16T01:02:49.240Z,14.63
2018-09-16T01:05:17.325Z,15.33
2018-09-16T01:07:45.492Z,13.83
2018-09-16T01:10:13.777Z,14.13
2018-09-16T01:12:41.860Z,14.77
2018-09-16T01:15:10.125Z,15.17
2018-09-16T01:17:38.201Z,14.20
2018-09-16T01:20:06.453Z,16.30
2018-09-16T01:22:34.643Z,15.23
2018-09-16T01:25:02.825Z,14.40
2018-09-16T01:27:30.984Z,15.10
2018-09-16T01:29:59.182Z,14.87
2018-09-16T01:32:27.313Z,14.53
2018-09-16T01:34:55.752Z,13.87
2018-09-16T01:37:29.375Z,15.60
2018-09-16T01:39:57.492Z,13.63
2018-09-16T01:42:25.705Z,14.80
2018-09-16T01:44:53.742Z,14.70
2018-09-16T01:47:21.913Z,13.90
2018-09-16T01:49:50.103Z,13.90
2018-09-16T01:52:18.265Z,13.50
2018-09-16T01:54:46.350Z,13.70
2018-09-16T01:57:14.424Z,14.80
2018-09-16T01:59:42.507Z,14.20
2018-09-16T02:02:10.656Z,13.93
2018-09-16T02:04:42.601Z,14.10
2018-09-16T02:07:12.112Z,13.80
2018-09-16T02:09:40.288Z,13.77
2018-09-16T02:12:08.740Z,14.97
2018-09-16T02:14:36.820Z,14.30
2018-09-16T02:17:04.924Z,14.80
2018-09-16T02:19:33.005Z,13.70
2018-09-16T02:22:01.200Z,14.00
2018-09-16T02:24:29.269Z,13.63
2018-09-16T02:26:57.437Z,14.67
2018-09-16T02:29:25.519Z,14.20
2018-09-16T02:31:53.599Z,15.60
2018-09-16T02:34:21.669Z,14.40
2018-09-16T02:36:49.997Z,14.53
2018-09-16T02:39:18.050Z,15.80
2018-09-16T02:41:46.149Z,14.70
2018-09-16T02:44:14.212Z,15.30
2018-09-16T02:46:42.350Z,15.57
2018-09-16T02:49:10.425Z,15.43
2018-09-16T02:51:38.644Z,16.60
2018-09-16T02:54:06.781Z,16.50
2018-09-16T02:56:34.924Z,17.27
2018-09-16T02:59:03.004Z,17.57
2018-09-16T03:01:31.196Z,16.43
2018-09-16T03:03:59.277Z,16.00
2018-09-16T03:06:31.497Z,16.07
2018-09-16T03:09:00.088Z,16.70
2018-09-16T03:11:28.650Z,17.30
2018-09-16T03:13:56.933Z,18.13
2018-09-16T03:16:25.026Z,16.30
2018-09-16T03:18:53.140Z,16.40
2018-09-16T03:21:21.389Z,16.53
2018-09-16T03:23:49.464Z,18.27
2018-09-16T03:26:17.545Z,17.20
2018-09-16T03:28:45.952Z,18.40
2018-09-16T03:31:14.020Z,17.30
2018-09-16T03:33:42.149Z,16.60
2018-09-16T03:36:10.249Z,17.10
2018-09-16T03:38:38.330Z,18.47
2018-09-16T03:41:06.408Z,17.37
2018-09-16T03:43:34.468Z,17.77
2018-09-16T03:46:02.612Z,18.03
2018-09-16T03:48:30.810Z,18.80
2018-09-16T03:50:59.094Z,18.60
2018-09-16T03:53:27.379Z,18.00
2018-09-16T03:55:55.460Z,17.87
2018-09-16T03:58:23.626Z,17.77
2018-09-16T04:00:51.701Z,19.37
2018-09-16T04:03:19.865Z,18.23
2018-09-16T04:05:48.048Z,17.00
2018-09-16T04:08:16.127Z,17.60
2018-09-16T04:10:44.189Z,18.57
2018-09-16T04:13:12.373Z,17.10
2018-09-16T04:15:40.449Z,16.73
2018-09-16T04:18:08.600Z,15.30
2018-09-16T04:20:36.805Z,17.30
2018-09-16T04:23:06.939Z,15.83
2018-09-16T04:25:35.161Z,15.30
2018-09-16T04:28:03.242Z,16.80
2018-09-16T04:30:31.645Z,16.40
2018-09-16T04:32:59.709Z,14.27
2018-09-16T04:35:27.819Z,16.70
2018-09-16T04:37:55.953Z,16.63
2018-09-16T04:40:24.138Z,16.80
2018-09-16T04:42:52.542Z,16.20
2018-09-16T04:45:20.702Z,15.20
2018-09-16T04:47:48.771Z,17.40
2018-09-16T04:50:16.992Z,16.20
2018-09-16T04:52:45.080Z,15.93
2018-09-16T04:55:13.163Z,16.90
2018-09-16T04:57:41.356Z,16.07
2018-09-16T05:00:09.447Z,16.30
2018-09-16T05:02:37.561Z,16.60
2018-09-16T05:05:05.901Z,15.30
2018-09-16T05:07:34.042Z,15.87
2018-09-16T05:10:02.174Z,16.17
2018-09-16T05:12:30.330Z,15.97
2018-09-16T05:14:58.765Z,16.73
2018-09-16T05:17:26.929Z,15.20
2018-09-16T05:19:55.025Z,16.60
2018-09-16T05:22:23.430Z,15.40
2018-09-16T05:24:51.704Z,16.70
2018-09-16T05:27:19.771Z,15.77
2018-09-16T05:29:48.023Z,15.77
2018-09-16T05:32:16.154Z,15.30
2018-09-16T05:34:44.245Z,15.33
2018-09-16T05:37:12.901Z,14.50
2018-09-16T05:39:41.089Z,14.77
2018-09-16T05:42:09.195Z,15.97
2018-09-16T05:44:37.418Z,15.27
2018-09-16T05:47:05.507Z,14.50
2018-09-16T05:49:33.665Z,15.30
2018-09-16T05:52:01.754Z,15.53
2018-09-16T05:54:29.925Z,15.60
2018-09-16T05:56:57.989Z,15.53
2018-09-16T05:59:26.120Z,16.90
2018-09-16T06:01:54.252Z,14.97
2018-09-16T06:04:22.339Z,15.13
2018-09-16T06:06:50.528Z,15.73
2018-09-16T06:09:18.604Z,14.50
2018-09-16T06:11:46.686Z,14.67
2018-09-16T06:14:14.769Z,15.17
2018-09-16T06:16:42.917Z,14.00
2018-09-16T06:19:11.001Z,14.00
2018-09-16T06:21:39.298Z,14.40
2018-09-16T06:24:07.428Z,15.00
2018-09-16T06:26:35.853Z,14.90
2018-09-16T06:29:04.081Z,15.23
2018-09-16T06:31:32.162Z,15.30
2018-09-16T06:34:00.318Z,14.30
2018-09-16T06:36:28.425Z,14.90
2018-09-16T06:38:56.525Z,14.77
2018-09-16T06:41:24.805Z,14.00
2018-09-16T06:43:53.112Z,14.40
2018-09-16T06:46:21.688Z,13.70
2018-09-16T06:48:49.786Z,13.97
2018-09-16T06:51:18.090Z,13.60
2018-09-16T06:53:46.197Z,12.97
2018-09-16T06:56:14.482Z,11.53
2018-09-16T06:58:42.965Z,12.53
2018-09-16T07:01:11.185Z,12.40
2018-09-16T07:03:39.304Z,11.03
2018-09-16T07:06:07.512Z,11.40
2018-09-16T07:08:35.748Z,11.00
2018-09-16T07:11:04.068Z,11.03
2018-09-16T07:13:32.242Z,11.30
2018-09-16T07:16:00.524Z,10.90
2018-09-16T07:18:28.688Z,10.60
2018-09-16T07:20:57.209Z,11.63
2018-09-16T07:23:25.301Z,11.73
2018-09-16T07:25:53.412Z,11.30
2018-09-16T07:28:21.476Z,12.63
2018-09-16T07:30:49.625Z,11.80
2018-09-16T07:33:17.789Z,10.87
2018-09-16T07:35:45.952Z,10.73
2018-09-16T07:38:14.244Z,9.70
2018-09-16T07:40:42.319Z,8.70
2018-09-16T07:43:10.451Z,9.60
2018-09-16T07:45:38.512Z,9.13
2018-09-16T07:48:06.695Z,8.57
2018-09-16T07:50:34.873Z,9.27
2018-09-16T07:53:03.075Z,7.90
2018-09-16T07:55:31.345Z,8.30
2018-09-16T07:57:59.486Z,9.50
2018-09-16T08:00:27.836Z,7.90
2018-09-16T08:02:55.941Z,7.03
2018-09-16T08:05:24.197Z,8.07
2018-09-16T08:07:52.463Z,7.33
2018-09-16T08:10:20.530Z,6.63
2018-09-16T08:12:48.656Z,6.73
2018-09-16T08:15:17.220Z,6.70
2018-09-16T08:17:45.451Z,6.03
2018-09-16T08:20:13.584Z,6.63
2018-09-16T08:22:41.672Z,6.30
2018-09-16T08:25:09.760Z,6.60
2018-09-16T08:27:38.009Z,7.20
2018-09-16T08:30:06.282Z,6.00
2018-09-16T08:32:34.366Z,6.30
2018-09-16T08:35:02.443Z,6.03
2018-09-16T08:37:30.547Z,5.97
2018-09-16T08:39:58.749Z,6.37
2018-09-16T08:42:26.870Z,5.70
2018-09-16T08:44:54.982Z,5.60
2018-09-16T08:47:23.077Z,5.80
2018-09-16T08:49:51.205Z,6.10
2018-09-16T08:52:19.404Z,5.20
2018-09-16T08:54:47.624Z,5.70
2018-09-16T08:57:15.704Z,6.10
2018-09-16T08:59:43.884Z,5.90
2018-09-16T09:02:12.101Z,5.80
2018-09-16T09:04:40.555Z,5.80
2018-09-16T09:07:08.644Z,5.77
2018-09-16T09:09:36.901Z,6.57
2018-09-16T09:12:04.998Z,6.00
2018-09-16T09:14:33.142Z,6.10
2018-09-16T09:17:01.457Z,6.17
2018-09-16T09:19:29.608Z,5.47
2018-09-16T09:21:58.751Z,5.87
2018-09-16T09:24:26.982Z,5.90
2018-09-16T09:26:55.092Z,6.33
2018-09-16T09:29:23.185Z,6.70
2018-09-16T09:31:51.465Z,5.20
2018-09-16T09:34:19.566Z,5.30
2018-09-16T09:36:47.643Z,5.63
2018-09-16T09:39:15.934Z,5.90
2018-09-16T09:41:44.112Z,6.43
2018-09-16T09:44:12.321Z,5.00
2018-09-16T09:46:40.404Z,6.10
2018-09-16T09:49:08.592Z,5.27
2018-09-16T09:51:36.754Z,5.90
2018-09-16T09:54:04.830Z,5.97
2018-09-16T09:56:33.040Z,5.47
2018-09-16T09:59:01.213Z,5.00
2018-09-16T10:01:29.511Z,5.47
2018-09-16T10:03:57.629Z,5.60
2018-09-16T10:06:25.761Z,5.27
2018-09-16T10:08:53.863Z,5.70
2018-09-16T10:11:21.965Z,6.70
2018-09-16T10:13:50.248Z,4.73
2018-09-16T10:16:18.644Z,4.63
2018-09-16T10:18:46.785Z,5.60
2018-09-16T10:21:14.851Z,6.10
2018-09-16T10:23:43.246Z,6.77
2018-09-16T10:26:11.645Z,6.70
2018-09-16T10:28:39.777Z,7.30
2018-09-16T10:31:08.159Z,6.67
2018-09-16T10:33:36.545Z,5.93
2018-09-16T10:36:05.119Z,6.43
2018-09-16T10:38:33.284Z,6.20
2018-09-16T10:41:01.629Z,7.30
2018-09-16T10:43:29.708Z,6.27
2018-09-16T10:45:57.787Z,6.40
2018-09-16T10:48:26.074Z,6.70
2018-09-16T10:50:54.297Z,6.13
2018-09-16T10:53:22.407Z,5.93
2018-09-16T10:55:50.498Z,6.40
2018-09-16T10:58:18.657Z,6.13
2018-09-16T11:00:46.712Z,6.13
2018-09-16T11:03:14.789Z,6.00
2018-09-16T11:05:42.956Z,5.20
2018-09-16T11:08:11.014Z,6.80
2018-09-16T11:10:39.093Z,6.20
2018-09-16T11:13:07.301Z,7.50
2018-09-16T11:15:35.431Z,5.53
2018-09-16T11:18:03.805Z,6.10
2018-09-16T11:20:31.900Z,5.80
2018-09-16T11:23:00.117Z,6.90
2018-09-16T11:25:28.282Z,5.10
2018-09-16T11:27:56.335Z,5.27
2018-09-16T11:30:24.536Z,5.77
2018-09-16T11:32:52.817Z,5.77
2018-09-16T11:35:20.976Z,5.67
2018-09-16T11:37:49.405Z,5.10
2018-09-16T11:40:17.904Z,5.60
2018-09-16T11:42:46.113Z,5.27
2018-09-16T11:45:14.236Z,5.03
2018-09-16T11:47:42.346Z,5.33
2018-09-16T11:50:10.459Z,5.40
2018-09-16T11:52:38.513Z,5.50
2018-09-16T11:55:06.634Z,5.73
2018-09-16T11:57:34.845Z,5.30
2018-09-16T12:00:02.971Z,4.60
2018-09-16T12:02:31.176Z,5.20
2018-09-16T12:04:59.268Z,4.70
2018-09-16T12:07:27.413Z,4.57
2018-09-16T12:09:55.516Z,4.30
2018-09-16T12:12:24.156Z,4.47
2018-09-16T12:14:52.367Z,4.33
2018-09-16T12:17:20.562Z,4.90
2018-09-16T12:19:48.733Z,4.57
2018-09-16T12:22:17.179Z,5.00
2018-09-16T12:24:45.276Z,4.53
2018-09-16T12:27:13.557Z,4.30
2018-09-16T12:29:41.768Z,4.80
2018-09-16T12:32:09.876Z,4.83
2018-09-16T12:34:37.939Z,4.53
2018-09-16T12:37:06.358Z,4.83
2018-09-16T12:39:34.427Z,4.53
2018-09-16T12:42:02.529Z,7.60
2018-09-16T12:44:30.606Z,6.00
2018-09-16T12:46:58.697Z,4.40
2018-09-16T12:49:26.846Z,4.70
2018-09-16T12:51:54.944Z,4.63
2018-09-16T12:54:23.100Z,5.03
2018-09-16T12:56:51.383Z,4.97
2018-09-16T12:59:19.744Z,4.57
2018-09-16T13:01:47.846Z,4.60
2018-09-16T13:04:16.086Z,4.40
2018-09-16T13:06:44.382Z,4.33
2018-09-16T13:09:12.628Z,4.13
2018-09-16T13:11:40.890Z,4.73
2018-09-16T13:14:09.052Z,4.27
2018-09-16T13:16:37.132Z,4.90
2018-09-16T13:19:05.268Z,4.00
2018-09-16T13:21:33.341Z,5.30
2018-09-16T13:24:01.456Z,4.77
2018-09-16T13:26:29.646Z,4.67
2018-09-16T13:28:57.749Z,4.33
2018-09-16T13:31:25.957Z,4.33
2018-09-16T13:33:54.164Z,4.53
2018-09-16T13:36:22.318Z,4.63
2018-09-16T13:38:50.543Z,4.13
2018-09-16T13:41:18.764Z,4.97
2018-09-16T13:43:46.929Z,4.63
2018-09-16T13:46:15.276Z,4.37
2018-09-16T13:48:43.436Z,4.27
2018-09-16T13:51:11.671Z,4.40
2018-09-16T13:53:40.048Z,3.73
2018-09-16T13:56:08.389Z,4.20
2018-09-16T13:58:36.909Z,5.43
2018-09-16T14:01:04.993Z,4.90
2018-09-16T14:03:33.121Z,4.00
2018-09-16T14:06:01.301Z,3.60
2018-09-16T14:08:29.497Z,3.90
2018-09-16T14:10:57.662Z,3.70
2018-09-16T14:13:25.840Z,4.13
2018-09-16T14:15:53.972Z,3.90
2018-09-16T14:18:22.101Z,3.93
2018-09-16T14:20:50.256Z,5.03
2018-09-16T14:23:18.522Z,4.03
2018-09-16T14:25:46.703Z,5.47
2018-09-16T14:28:14.949Z,4.20
2018-09-16T14:30:43.244Z,4.03
2018-09-16T14:33:11.388Z,4.53
2018-09-16T14:35:39.478Z,3.67
2018-09-16T14:38:07.652Z,4.10
2018-09-16T14:40:35.752Z,4.20
2018-09-16T14:43:04.508Z,4.70
2018-09-16T14:45:32.617Z,4.30
2018-09-16T14:48:00.784Z,4.27
2018-09-16T14:50:28.980Z,4.47
2018-09-16T14:52:57.043Z,4.60
2018-09-16T14:55:25.370Z,4.20
2018-09-16T14:57:54.419Z,4.50
2018-09-16T15:00:22.568Z,4.17
2018-09-16T15:02:50.689Z,4.10
2018-09-16T15:05:18.863Z,4.20
2018-09-16T15:07:46.974Z,4.33
2018-09-16T15:10:15.232Z,4.60
2018-09-16T15:12:43.445Z,4.53
2018-09-16T15:15:11.689Z,3.80
2018-09-16T15:17:40.005Z,4.53
2018-09-16T15:20:08.157Z,4.23
2018-09-16T15:22:36.310Z,4.43
2018-09-16T15:25:04.633Z,4.50
2018-09-16T15:27:32.850Z,4.30
2018-09-16T15:30:00.961Z,4.30
2018-09-16T15:32:29.652Z,4.40
2018-09-16T15:34:57.850Z,4.33
2018-09-16T15:37:26.188Z,4.10
2018-09-16T15:39:54.297Z,4.40
2018-09-16T15:42:22.503Z,4.27
2018-09-16T15:44:50.737Z,4.60
2018-09-16T15:47:18.793Z,4.60
2018-09-16T15:49:46.948Z,3.77
2018-09-16T15:52:15.356Z,4.07
2018-09-16T15:54:45.492Z,4.43
2018-09-16T15:57:13.624Z,4.20
2018-09-16T15:59:41.689Z,4.20
2018-09-16T16:02:09.837Z,4.13
2018-09-16T16:04:37.941Z,4.17
2018-09-16T16:07:06.255Z,4.10
2018-09-16T16:09:34.325Z,3.70
2018-09-16T16:12:02.764Z,4.07
2018-09-16T16:14:30.832Z,4.20
2018-09-16T16:16:59.024Z,4.00
2018-09-16T16:19:27.173Z,4.40
2018-09-16T16:21:55.288Z,4.73
2018-09-16T16:24:23.436Z,4.40
2018-09-16T16:26:51.498Z,3.77
2018-09-16T16:29:19.600Z,4.70
2018-09-16T16:31:47.837Z,4.03
2018-09-16T16:34:16.106Z,4.57
2018-09-16T16:36:44.339Z,3.90
2018-09-16T16:39:12.556Z,5.90
2018-09-16T16:41:40.781Z,6.80
2018-09-16T16:44:08.912Z,9.70
2018-09-16T16:46:37.000Z,7.03
2018-09-16T16:49:05.697Z,6.37
2018-09-16T16:51:33.812Z,7.60
2018-09-16T16:54:01.920Z,5.73
2018-09-16T16:56:30.014Z,8.73
2018-09-16T16:58:58.288Z,13.17
2018-09-16T17:01:26.390Z,9.77
2018-09-16T17:03:54.562Z,10.97
2018-09-16T17:06:22.942Z,7.97
2018-09-16T17:08:51.209Z,7.53
2018-09-16T17:11:19.409Z,8.00
2018-09-16T17:13:47.940Z,7.70
2018-09-16T17:16:16.213Z,7.77
2018-09-16T17:18:44.379Z,8.33
2018-09-16T17:21:12.765Z,6.50
2018-09-16T17:23:40.989Z,6.97
2018-09-16T17:26:09.144Z,6.03
2018-09-16T17:28:37.491Z,6.50
2018-09-16T17:31:05.640Z,5.47
2018-09-16T17:33:33.693Z,5.77
2018-09-16T17:36:01.841Z,5.40
2018-09-16T17:38:29.965Z,5.80
2018-09-16T17:40:58.292Z,4.93
2018-09-16T17:43:26.444Z,5.20
2018-09-16T17:45:54.610Z,5.70
2018-09-16T17:48:22.716Z,5.20
2018-09-16T17:50:50.921Z,6.43
2018-09-16T17:53:19.061Z,6.07
2018-09-16T17:55:47.151Z,5.97
2018-09-16T17:58:15.384Z,6.33
2018-09-16T18:00:43.475Z,6.17
2018-09-16T18:03:11.733Z,5.60
2018-09-16T18:05:39.954Z,6.27
2018-09-16T18:08:08.092Z,6.47
2018-09-16T18:10:36.257Z,6.43
2018-09-16T18:13:04.639Z,7.07
2018-09-16T18:15:32.851Z,6.80
2018-09-16T18:18:00.951Z,7.50
2018-09-16T18:20:29.113Z,7.13
2018-09-16T18:22:57.183Z,7.50
2018-09-16T18:25:25.311Z,6.80
2018-09-16T18:27:53.405Z,7.40
2018-09-16T18:30:21.494Z,7.20
2018-09-16T18:32:49.649Z,7.00
2018-09-16T18:35:18.206Z,7.83
2018-09-16T18:37:46.576Z,7.70
2018-09-16T18:40:14.748Z,7.33
2018-09-16T18:42:42.887Z,7.20
2018-09-16T18:45:11.188Z,7.00
2018-09-16T18:47:39.589Z,6.97
2018-09-16T18:50:07.738Z,7.20
2018-09-16T18:52:35.924Z,7.43
2018-09-16T18:55:04.084Z,7.53
2018-09-16T18:57:32.212Z,7.40
2018-09-16T19:00:00.377Z,6.93
2018-09-16T19:02:28.465Z,8.50
2018-09-16T19:04:56.682Z,7.97
2018-09-16T19:07:24.794Z,8.43
2018-09-16T19:09:52.891Z,7.53
2018-09-16T19:12:21.108Z,11.93
2018-09-16T19:14:49.189Z,8.70
2018-09-16T19:17:17.400Z,7.97
2018-09-16T19:19:45.532Z,7.60
2018-09-16T19:22:13.875Z,8.37
2018-09-16T19:24:41.971Z,8.63
2018-09-16T19:27:10.112Z,7.67
2018-09-16T19:29:38.233Z,8.13
2018-09-16T19:32:06.427Z,7.87
2018-09-16T19:34:34.515Z,7.93
2018-09-16T19:37:02.605Z,7.90
2018-09-16T19:39:30.746Z,7.90
2018-09-16T19:41:59.078Z,7.87
2018-09-16T19:44:27.212Z,7.70
2018-09-16T19:46:55.311Z,7.90
2018-09-16T19:49:23.412Z,7.70
2018-09-16T19:51:51.525Z,8.17
2018-09-16T19:54:19.711Z,8.23
2018-09-16T19:56:47.873Z,8.70
2018-09-16T19:59:16.034Z,7.93
2018-09-16T20:01:44.148Z,8.70
2018-09-16T20:04:12.302Z,9.73
2018-09-16T20:06:40.659Z,8.70
2018-09-16T20:09:09.946Z,9.17
2018-09-16T20:11:38.057Z,9.60
2018-09-16T20:14:06.665Z,9.77
2018-09-16T20:16:35.345Z,8.43
2018-09-16T20:19:03.432Z,8.70
2018-09-16T20:21:31.700Z,8.93
2018-09-16T20:24:00.073Z,10.23
2018-09-16T20:26:28.206Z,8.97
2018-09-16T20:28:56.576Z,9.70
2018-09-16T20:31:24.879Z,9.83
2018-09-16T20:33:53.049Z,9.30
2018-09-16T20:36:21.227Z,9.30
2018-09-16T20:38:49.431Z,8.93
2018-09-16T20:41:17.607Z,9.00
2018-09-16T20:43:45.781Z,9.23
2018-09-16T20:46:14.309Z,8.80
2018-09-16T20:48:42.446Z,8.60
2018-09-16T20:51:10.617Z,8.10
2018-09-16T20:53:38.747Z,8.57
2018-09-16T20:56:06.989Z,8.90
2018-09-16T20:58:35.266Z,8.17
2018-09-16T21:01:03.359Z,8.57
2018-09-16T21:03:31.465Z,9.23
2018-09-16T21:05:59.671Z,8.77
2018-09-16T21:08:27.811Z,9.53
2018-09-16T21:10:55.928Z,9.30
2018-09-16T21:13:24.056Z,8.97
2018-09-16T21:15:52.232Z,8.67
2018-09-16T21:18:20.387Z,8.17
2018-09-16T21:20:48.527Z,8.97
2018-09-16T21:23:16.636Z,8.50
2018-09-16T21:25:44.819Z,8.33
2018-09-16T21:28:12.997Z,8.57
2018-09-16T21:30:41.094Z,9.27
2018-09-16T21:33:09.252Z,8.70
2018-09-16T21:35:37.453Z,8.97
2018-09-16T21:38:05.532Z,8.13
2018-09-16T21:40:33.593Z,9.07
2018-09-16T21:43:01.749Z,8.80
2018-09-16T21:45:29.926Z,9.43
2018-09-16T21:47:58.042Z,9.23
2018-09-16T21:50:26.210Z,8.83
2018-09-16T21:52:54.337Z,8.90
2018-09-16T21:55:22.425Z,8.77
2018-09-16T21:57:50.730Z,8.70
2018-09-16T22:00:18.886Z,9.00
2018-09-16T22:02:46.981Z,9.00
2018-09-16T22:05:15.173Z,8.70
2018-09-16T22:07:43.430Z,8.60
2018-09-16T22:10:11.512Z,8.07
2018-09-16T22:12:39.596Z,9.30
2018-09-16T22:15:07.712Z,8.30
2018-09-16T22:17:35.946Z,9.17
2018-09-16T22:20:04.204Z,9.70
2018-09-16T22:22:32.425Z,9.23
2018-09-16T22:25:00.584Z,9.40
2018-09-16T22:27:28.862Z,9.90
2018-09-16T22:29:56.909Z,9.50
2018-09-16T22:32:24.998Z,9.77
2018-09-16T22:34:53.108Z,9.17
2018-09-16T22:37:21.696Z,9.67
2018-09-16T22:39:49.837Z,9.13
2018-09-16T22:42:18.628Z,9.20
2018-09-16T22:44:46.725Z,8.83
2018-09-16T22:47:14.794Z,9.47
2018-09-16T22:49:42.865Z,9.83
2018-09-16T22:52:11.061Z,9.00
2018-09-16T22:54:39.137Z,9.67
2018-09-16T22:57:07.228Z,9.33
2018-09-16T22:59:35.305Z,9.40
2018-09-16T23:02:03.444Z,8.77
2018-09-16T23:04:31.577Z,9.50
2018-09-16T23:06:59.824Z,9.40
2018-09-16T23:09:27.954Z,9.60
2018-09-16T23:11:56.037Z,9.67
2018-09-16T23:14:24.128Z,9.27
2018-09-16T23:16:52.188Z,8.87
2018-09-16T23:19:20.368Z,9.53
2018-09-16T23:21:48.437Z,9.93
2018-09-16T23:24:16.497Z,9.13
2018-09-16T23:26:44.673Z,10.47
2018-09-16T23:29:12.764Z,9.40
2018-09-16T23:31:40.883Z,10.60
2018-09-16T23:34:08.940Z,9.33
2018-09-16T23:36:37.010Z,9.63
2018-09-16T23:39:06.497Z,9.60
2018-09-16T23:41:34.669Z,9.60
2018-09-16T23:44:02.740Z,10.20
2018-09-16T23:46:30.897Z,10.03
2018-09-16T23:48:58.977Z,10.30
2018-09-16T23:51:27.184Z,10.63
2018-09-16T23:53:55.373Z,9.57
2018-09-16T23:56:23.509Z,10.40
2018-09-16T23:58:51.665Z,9.30
